createdAt,value
2024-04-24T00:00:05.632Z,7.03
2024-04-24T00:00:36.407Z,6.70
2024-04-24T00:01:07.213Z,7.60
2024-04-24T00:01:38.127Z,7.47
2024-04-24T00:02:09.176Z,6.37
2024-04-24T00:02:40.108Z,6.07
2024-04-24T00:03:10.968Z,7.10
2024-04-24T00:03:41.954Z,6.43
2024-04-24T00:04:12.787Z,6.50
2024-04-24T00:04:43.617Z,7.30
2024-04-24T00:05:14.434Z,7.27
2024-04-24T00:05:45.502Z,7.50
2024-04-24T00:06:16.418Z,6.50
2024-04-24T00:06:47.216Z,6.57
2024-04-24T00:07:18.051Z,7.03
2024-04-24T00:07:48.934Z,7.03
2024-04-24T00:08:19.817Z,7.10
2024-04-24T00:08:50.669Z,6.70
2024-04-24T00:09:21.458Z,6.50
2024-04-24T00:09:52.258Z,6.67
2024-04-24T00:10:23.041Z,6.90
2024-04-24T00:10:53.890Z,7.60
2024-04-24T00:11:26.302Z,7.27
2024-04-24T00:11:57.214Z,7.80
2024-04-24T00:12:28.179Z,7.20
2024-04-24T00:12:58.968Z,7.00
2024-04-24T00:13:29.751Z,7.13
2024-04-24T00:14:00.557Z,7.27
2024-04-24T00:14:31.365Z,7.17
2024-04-24T00:15:02.191Z,7.07
2024-04-24T00:15:33.001Z,6.73
2024-04-24T00:16:04.184Z,7.20
2024-04-24T00:16:35.604Z,7.40
2024-04-24T00:17:06.447Z,7.43
2024-04-24T00:17:37.358Z,7.27
2024-04-24T00:18:08.242Z,7.43
2024-04-24T00:18:41.181Z,7.47
2024-04-24T00:19:12.048Z,7.50
2024-04-24T00:19:42.838Z,7.43
2024-04-24T00:20:13.685Z,7.77
2024-04-24T00:20:44.490Z,7.77
2024-04-24T00:21:15.348Z,8.17
2024-04-24T00:21:46.215Z,7.90
2024-04-24T00:22:17.003Z,7.73
2024-04-24T00:22:48.081Z,7.23
2024-04-24T00:23:18.973Z,7.67
2024-04-24T00:23:49.829Z,7.83
2024-04-24T00:24:20.637Z,7.30
2024-04-24T00:24:51.537Z,8.00
2024-04-24T00:25:22.345Z,7.43
2024-04-24T00:25:56.942Z,8.33
2024-04-24T00:26:28.126Z,8.10
2024-04-24T00:26:58.931Z,7.67
2024-04-24T00:27:29.752Z,7.53
2024-04-24T00:28:00.551Z,7.37
2024-04-24T00:28:31.341Z,7.57
2024-04-24T00:29:02.181Z,7.50
2024-04-24T00:29:32.974Z,7.80
2024-04-24T00:30:03.965Z,8.33
2024-04-24T00:30:34.744Z,7.80
2024-04-24T00:31:05.681Z,7.67
2024-04-24T00:31:36.535Z,8.03
2024-04-24T00:32:07.474Z,8.40
2024-04-24T00:32:39.582Z,7.90
2024-04-24T00:33:10.602Z,8.23
2024-04-24T00:33:41.583Z,8.07
2024-04-24T00:34:12.432Z,8.00
2024-04-24T00:34:43.221Z,7.77
2024-04-24T00:35:14.124Z,7.50
2024-04-24T00:35:45.041Z,7.57
2024-04-24T00:36:15.929Z,7.97
2024-04-24T00:36:46.747Z,7.60
2024-04-24T00:37:17.600Z,7.80
2024-04-24T00:37:48.416Z,6.93
2024-04-24T00:38:19.266Z,6.67
2024-04-24T00:38:50.190Z,7.00
2024-04-24T00:39:21.060Z,7.37
2024-04-24T00:39:52.101Z,7.33
2024-04-24T00:40:22.886Z,7.53
2024-04-24T00:40:53.686Z,7.67
2024-04-24T00:41:24.548Z,6.97
2024-04-24T00:41:55.417Z,7.17
2024-04-24T00:42:26.240Z,7.47
2024-04-24T00:42:57.025Z,7.40
2024-04-24T00:43:27.819Z,7.87
2024-04-24T00:43:58.644Z,7.17
2024-04-24T00:44:29.564Z,7.57
2024-04-24T00:45:00.370Z,7.13
2024-04-24T00:45:31.170Z,6.97
2024-04-24T00:46:02.771Z,7.03
2024-04-24T00:46:35.080Z,7.90
2024-04-24T00:47:06.026Z,8.10
2024-04-24T00:47:38.536Z,8.10
2024-04-24T00:48:10.207Z,7.87
2024-04-24T00:48:42.820Z,7.83
2024-04-24T00:49:14.526Z,7.47
2024-04-24T00:49:46.797Z,7.57
2024-04-24T00:50:18.761Z,7.33
2024-04-24T00:50:50.074Z,7.53
2024-04-24T00:51:22.024Z,7.40
2024-04-24T00:51:53.510Z,7.70
2024-04-24T00:52:24.413Z,7.50
2024-04-24T00:52:55.344Z,7.93
2024-04-24T00:53:26.194Z,7.00
2024-04-24T00:53:57.015Z,6.83
2024-04-24T00:54:28.094Z,8.00
2024-04-24T00:54:59.030Z,7.80
2024-04-24T00:55:30.248Z,7.23
2024-04-24T00:56:04.182Z,7.23
2024-04-24T00:56:35.113Z,8.07
2024-04-24T00:57:06.553Z,7.77
2024-04-24T00:57:37.374Z,7.83
2024-04-24T00:58:08.161Z,7.63
2024-04-24T00:58:39.071Z,7.27
2024-04-24T00:59:10.357Z,7.20
2024-04-24T00:59:41.223Z,7.20
2024-04-24T01:00:12.138Z,7.67
2024-04-24T01:00:44.197Z,7.63
2024-04-24T01:01:15.363Z,7.43
2024-04-24T01:01:46.220Z,7.37
2024-04-24T01:02:17.144Z,7.10
2024-04-24T01:02:48.201Z,7.27
2024-04-24T01:03:20.222Z,6.80
2024-04-24T01:03:51.101Z,7.07
2024-04-24T01:04:21.961Z,8.07
2024-04-24T01:04:52.784Z,7.87
2024-04-24T01:05:23.728Z,7.53
2024-04-24T01:05:54.616Z,8.10
2024-04-24T01:06:25.405Z,8.30
2024-04-24T01:06:56.547Z,7.80
2024-04-24T01:07:27.420Z,7.53
2024-04-24T01:07:58.334Z,7.60
2024-04-24T01:08:29.441Z,7.97
2024-04-24T01:09:00.251Z,7.30
2024-04-24T01:09:32.596Z,7.40
2024-04-24T01:10:18.897Z,7.03
2024-04-24T01:10:56.612Z,7.40
2024-04-24T01:11:31.513Z,8.33
2024-04-24T01:12:02.554Z,8.90
2024-04-24T01:12:33.528Z,8.27
2024-04-24T01:13:04.374Z,8.53
2024-04-24T01:13:35.585Z,7.43
2024-04-24T01:14:06.424Z,7.00
2024-04-24T01:14:37.233Z,7.73
2024-04-24T01:15:08.605Z,8.20
2024-04-24T01:15:42.074Z,8.13
2024-04-24T01:16:18.400Z,7.63
2024-04-24T01:16:49.747Z,7.23
2024-04-24T01:17:20.805Z,8.00
2024-04-24T01:17:53.911Z,7.53
2024-04-24T01:18:26.591Z,7.07
2024-04-24T01:19:04.044Z,7.53
2024-04-24T01:19:43.793Z,7.43
2024-04-24T01:20:22.045Z,7.37
2024-04-24T01:20:54.579Z,7.27
2024-04-24T01:21:39.319Z,7.47
2024-04-24T01:22:12.743Z,7.97
2024-04-24T01:23:17.225Z,7.73
2024-04-24T01:23:58.997Z,8.17
2024-04-24T01:24:34.700Z,6.90
2024-04-24T01:25:34.089Z,8.00
2024-04-24T01:26:24.718Z,7.57
2024-04-24T01:26:55.905Z,7.43
2024-04-24T01:27:26.803Z,7.13
2024-04-24T01:27:57.593Z,7.00
2024-04-24T01:28:28.465Z,7.27
2024-04-24T01:28:59.424Z,7.43
2024-04-24T01:29:30.207Z,7.50
2024-04-24T01:30:01.006Z,7.23
2024-04-24T01:30:31.837Z,7.57
2024-04-24T01:31:03.662Z,7.93
2024-04-24T01:31:34.464Z,7.50
2024-04-24T01:32:05.479Z,7.37
2024-04-24T01:32:36.544Z,8.53
2024-04-24T01:33:07.559Z,8.10
2024-04-24T01:33:38.622Z,7.80
2024-04-24T01:34:09.519Z,7.50
2024-04-24T01:34:40.309Z,7.27
2024-04-24T01:35:11.168Z,7.07
2024-04-24T01:35:42.123Z,6.80
2024-04-24T01:36:12.924Z,6.40
2024-04-24T01:36:43.769Z,7.00
2024-04-24T01:37:14.569Z,7.80
2024-04-24T01:37:45.431Z,7.40
2024-04-24T01:38:16.579Z,7.43
2024-04-24T01:38:47.458Z,7.73
2024-04-24T01:39:18.268Z,6.83
2024-04-24T01:39:49.335Z,7.30
2024-04-24T01:40:20.140Z,8.27
2024-04-24T01:40:50.935Z,7.73
2024-04-24T01:41:21.821Z,8.17
2024-04-24T01:41:52.617Z,7.57
2024-04-24T01:42:23.409Z,9.03
2024-04-24T01:42:54.234Z,8.87
2024-04-24T01:43:25.038Z,7.87
2024-04-24T01:43:56.059Z,7.23
2024-04-24T01:44:26.971Z,7.50
2024-04-24T01:44:57.884Z,7.50
2024-04-24T01:45:28.689Z,7.67
2024-04-24T01:45:59.489Z,7.27
2024-04-24T01:46:30.290Z,7.73
2024-04-24T01:47:01.212Z,7.23
2024-04-24T01:47:32.215Z,7.33
2024-04-24T01:48:03.503Z,7.07
2024-04-24T01:48:34.811Z,7.20
2024-04-24T01:49:05.663Z,7.23
2024-04-24T01:49:36.508Z,8.03
2024-04-24T01:50:07.425Z,7.00
2024-04-24T01:50:38.254Z,7.43
2024-04-24T01:51:09.080Z,8.10
2024-04-24T01:51:39.878Z,7.97
2024-04-24T01:52:10.782Z,7.73
2024-04-24T01:52:41.568Z,6.87
2024-04-24T01:53:12.459Z,7.27
2024-04-24T01:53:43.331Z,7.47
2024-04-24T01:54:14.112Z,7.87
2024-04-24T01:54:45.052Z,7.37
2024-04-24T01:55:15.825Z,7.50
2024-04-24T01:55:46.630Z,7.73
2024-04-24T01:56:17.487Z,7.60
2024-04-24T01:56:48.302Z,6.17
2024-04-24T01:57:19.085Z,6.80
2024-04-24T01:57:49.875Z,7.30
2024-04-24T01:58:21.293Z,6.87
2024-04-24T01:58:52.112Z,7.10
2024-04-24T01:59:22.944Z,7.17
2024-04-24T01:59:53.825Z,7.27
2024-04-24T02:00:24.614Z,7.90
2024-04-24T02:00:55.482Z,7.17
2024-04-24T02:01:26.294Z,7.33
2024-04-24T02:01:57.164Z,6.90
2024-04-24T02:02:28.059Z,6.47
2024-04-24T02:02:58.893Z,7.20
2024-04-24T02:03:29.709Z,6.97
2024-04-24T02:04:00.561Z,7.33
2024-04-24T02:04:31.377Z,6.90
2024-04-24T02:05:02.686Z,6.90
2024-04-24T02:05:34.278Z,6.87
2024-04-24T02:06:05.197Z,6.83
2024-04-24T02:06:35.975Z,7.07
2024-04-24T02:07:06.754Z,7.30
2024-04-24T02:07:37.539Z,7.10
2024-04-24T02:08:08.399Z,7.23
2024-04-24T02:08:39.186Z,7.13
2024-04-24T02:09:10.168Z,7.30
2024-04-24T02:09:41.119Z,7.00
2024-04-24T02:10:11.946Z,6.97
2024-04-24T02:10:42.964Z,7.03
2024-04-24T02:11:20.461Z,7.43
2024-04-24T02:11:59.559Z,7.13
2024-04-24T02:12:37.688Z,7.30
2024-04-24T02:13:08.502Z,6.83
2024-04-24T02:13:39.293Z,6.87
2024-04-24T02:14:10.107Z,7.00
2024-04-24T02:14:40.982Z,7.03
2024-04-24T02:15:11.772Z,7.80
2024-04-24T02:15:42.568Z,7.63
2024-04-24T02:16:13.358Z,7.83
2024-04-24T02:16:44.152Z,7.17
2024-04-24T02:17:15.119Z,6.97
2024-04-24T02:17:46.025Z,7.20
2024-04-24T02:18:17.011Z,7.27
2024-04-24T02:18:47.944Z,7.07
2024-04-24T02:19:18.770Z,6.70
2024-04-24T02:19:49.691Z,7.27
2024-04-24T02:20:20.651Z,7.07
2024-04-24T02:20:51.460Z,7.40
2024-04-24T02:21:22.262Z,7.37
2024-04-24T02:21:53.049Z,6.77
2024-04-24T02:22:23.839Z,7.53
2024-04-24T02:22:56.750Z,7.57
2024-04-24T02:23:31.455Z,7.23
2024-04-24T02:24:02.300Z,8.07
2024-04-24T02:24:51.936Z,6.93
2024-04-24T02:25:35.013Z,7.60
2024-04-24T02:26:09.306Z,7.80
2024-04-24T02:26:40.175Z,7.17
2024-04-24T02:27:11.019Z,6.93
2024-04-24T02:27:41.802Z,7.23
2024-04-24T02:28:12.663Z,7.07
2024-04-24T02:28:43.489Z,7.17
2024-04-24T02:29:14.324Z,7.40
2024-04-24T02:29:51.830Z,7.90
2024-04-24T02:30:27.116Z,7.33
2024-04-24T02:30:57.915Z,7.10
2024-04-24T02:31:28.726Z,6.63
2024-04-24T02:31:59.564Z,7.07
2024-04-24T02:32:30.500Z,6.80
2024-04-24T02:33:02.131Z,7.53
2024-04-24T02:33:33.053Z,6.93
2024-04-24T02:34:03.896Z,7.20
2024-04-24T02:34:34.765Z,6.67
2024-04-24T02:35:05.671Z,6.70
2024-04-24T02:35:36.493Z,7.47
2024-04-24T02:36:07.334Z,7.37
2024-04-24T02:36:38.144Z,6.33
2024-04-24T02:37:08.934Z,6.43
2024-04-24T02:37:40.261Z,7.03
2024-04-24T02:38:11.125Z,6.63
2024-04-24T02:38:42.005Z,6.77
2024-04-24T02:39:12.867Z,7.13
2024-04-24T02:39:43.809Z,6.53
2024-04-24T02:40:14.590Z,6.73
2024-04-24T02:40:45.522Z,7.23
2024-04-24T02:41:16.484Z,7.60
2024-04-24T02:41:47.323Z,6.73
2024-04-24T02:42:18.128Z,6.83
2024-04-24T02:42:49.209Z,6.50
2024-04-24T02:43:20.060Z,6.37
2024-04-24T02:43:50.873Z,7.60
2024-04-24T02:44:21.884Z,6.70
2024-04-24T02:44:52.914Z,5.90
2024-04-24T02:45:23.709Z,6.70
2024-04-24T02:45:54.768Z,6.97
2024-04-24T02:46:25.576Z,7.23
2024-04-24T02:46:56.444Z,6.50
2024-04-24T02:47:27.430Z,6.57
2024-04-24T02:47:58.320Z,7.00
2024-04-24T02:48:29.258Z,6.30
2024-04-24T02:49:00.117Z,7.07
2024-04-24T02:49:30.909Z,7.07
2024-04-24T02:50:01.802Z,6.77
2024-04-24T02:50:32.650Z,6.23
2024-04-24T02:51:03.719Z,6.50
2024-04-24T02:51:34.503Z,6.27
2024-04-24T02:52:05.389Z,6.27
2024-04-24T02:52:36.237Z,6.97
2024-04-24T02:53:07.251Z,7.00
2024-04-24T02:53:38.085Z,6.47
2024-04-24T02:54:08.895Z,6.63
2024-04-24T02:54:39.684Z,6.80
2024-04-24T02:55:10.546Z,6.73
2024-04-24T02:55:41.375Z,7.33
2024-04-24T02:56:12.262Z,6.87
2024-04-24T02:56:43.063Z,6.80
2024-04-24T02:57:13.852Z,6.87
2024-04-24T02:57:44.866Z,6.83
2024-04-24T02:58:15.709Z,6.63
2024-04-24T02:58:46.530Z,6.63
2024-04-24T02:59:17.351Z,6.50
2024-04-24T02:59:48.175Z,6.80
2024-04-24T03:00:18.980Z,6.70
2024-04-24T03:00:49.811Z,6.50
2024-04-24T03:01:20.613Z,6.87
2024-04-24T03:01:51.533Z,7.27
2024-04-24T03:02:22.436Z,6.60
2024-04-24T03:02:53.446Z,6.57
2024-04-24T03:03:24.437Z,6.63
2024-04-24T03:03:55.299Z,6.90
2024-04-24T03:04:26.119Z,7.70
2024-04-24T03:04:56.930Z,7.10
2024-04-24T03:05:27.801Z,6.27
2024-04-24T03:05:58.611Z,5.97
2024-04-24T03:06:29.408Z,6.57
2024-04-24T03:07:00.229Z,7.03
2024-04-24T03:07:31.050Z,6.97
2024-04-24T03:08:01.888Z,6.77
2024-04-24T03:08:32.831Z,6.33
2024-04-24T03:09:03.619Z,6.97
2024-04-24T03:09:35.387Z,6.93
2024-04-24T03:10:06.468Z,6.77
2024-04-24T03:10:37.256Z,8.07
2024-04-24T03:11:08.143Z,7.03
2024-04-24T03:11:39.837Z,6.90
2024-04-24T03:12:10.716Z,6.70
2024-04-24T03:12:41.500Z,7.20
2024-04-24T03:13:12.283Z,6.97
2024-04-24T03:13:43.136Z,6.83
2024-04-24T03:14:20.637Z,6.77
2024-04-24T03:14:51.605Z,7.00
2024-04-24T03:15:22.387Z,6.93
2024-04-24T03:15:53.200Z,6.87
2024-04-24T03:16:33.484Z,6.53
2024-04-24T03:17:04.434Z,6.50
2024-04-24T03:17:37.061Z,6.70
2024-04-24T03:18:07.982Z,7.33
2024-04-24T03:18:38.866Z,7.00
2024-04-24T03:19:09.754Z,7.10
2024-04-24T03:19:40.619Z,7.07
2024-04-24T03:20:11.521Z,6.57
2024-04-24T03:20:42.392Z,6.30
2024-04-24T03:21:20.143Z,6.57
2024-04-24T03:21:51.293Z,6.73
2024-04-24T03:22:22.100Z,6.77
2024-04-24T03:22:52.934Z,6.47
2024-04-24T03:23:23.814Z,6.40
2024-04-24T03:23:54.645Z,6.43
2024-04-24T03:24:25.440Z,6.20
2024-04-24T03:24:56.236Z,6.47
2024-04-24T03:25:27.029Z,6.33
2024-04-24T03:25:57.829Z,6.57
2024-04-24T03:26:28.755Z,6.37
2024-04-24T03:26:59.605Z,6.23
2024-04-24T03:27:30.393Z,6.03
2024-04-24T03:28:01.236Z,6.00
2024-04-24T03:28:32.036Z,6.53
2024-04-24T03:29:02.852Z,6.50
2024-04-24T03:29:33.707Z,6.60
2024-04-24T03:30:05.036Z,7.00
2024-04-24T03:30:35.876Z,6.53
2024-04-24T03:31:06.848Z,6.83
2024-04-24T03:31:37.660Z,6.53
2024-04-24T03:32:08.514Z,6.83
2024-04-24T03:32:39.522Z,6.97
2024-04-24T03:33:10.732Z,6.67
2024-04-24T03:33:41.814Z,6.67
2024-04-24T03:34:12.635Z,6.67
2024-04-24T03:34:43.428Z,6.27
2024-04-24T03:35:14.314Z,6.60
2024-04-24T03:35:45.176Z,7.37
2024-04-24T03:36:15.961Z,6.97
2024-04-24T03:36:46.747Z,6.13
2024-04-24T03:37:17.546Z,6.60
2024-04-24T03:37:48.370Z,6.37
2024-04-24T03:38:19.701Z,5.97
2024-04-24T03:38:50.547Z,6.43
2024-04-24T03:39:21.345Z,6.37
2024-04-24T03:39:52.199Z,6.30
2024-04-24T03:40:23.003Z,6.37
2024-04-24T03:40:53.818Z,6.90
2024-04-24T03:41:24.712Z,7.23
2024-04-24T03:41:55.522Z,6.43
2024-04-24T03:42:26.357Z,6.10
2024-04-24T03:42:57.162Z,7.27
2024-04-24T03:43:29.478Z,6.60
2024-04-24T03:44:00.308Z,7.07
2024-04-24T03:44:31.357Z,6.67
2024-04-24T03:45:02.444Z,6.37
2024-04-24T03:45:33.248Z,6.77
2024-04-24T03:46:04.060Z,6.80
2024-04-24T03:46:34.872Z,6.20
2024-04-24T03:47:05.851Z,6.33
2024-04-24T03:47:36.800Z,6.67
2024-04-24T03:48:07.753Z,6.27
2024-04-24T03:48:41.208Z,6.67
2024-04-24T03:49:12.566Z,6.53
2024-04-24T03:49:43.424Z,6.20
2024-04-24T03:50:14.280Z,6.97
2024-04-24T03:50:45.081Z,6.73
2024-04-24T03:51:15.947Z,6.53
2024-04-24T03:51:46.731Z,6.30
2024-04-24T03:52:19.935Z,6.83
2024-04-24T03:52:50.751Z,7.03
2024-04-24T03:53:22.764Z,6.77
2024-04-24T03:53:53.641Z,6.27
2024-04-24T03:54:24.426Z,6.53
2024-04-24T03:54:55.229Z,6.80
2024-04-24T03:55:26.097Z,6.43
2024-04-24T03:55:56.974Z,6.10
2024-04-24T03:56:27.870Z,6.33
2024-04-24T03:56:58.691Z,6.53
2024-04-24T03:57:29.485Z,6.07
2024-04-24T03:58:00.280Z,5.77
2024-04-24T03:58:31.071Z,6.50
2024-04-24T03:59:01.996Z,6.83
2024-04-24T03:59:32.835Z,6.57
2024-04-24T04:00:03.963Z,6.50
2024-04-24T04:00:34.754Z,6.73
2024-04-24T04:01:05.565Z,7.00
2024-04-24T04:01:36.378Z,7.23
2024-04-24T04:02:07.240Z,6.50
2024-04-24T04:02:38.195Z,6.60
2024-04-24T04:03:11.719Z,6.83
2024-04-24T04:03:42.640Z,6.73
2024-04-24T04:04:13.467Z,6.83
2024-04-24T04:04:44.549Z,6.17
2024-04-24T04:05:15.368Z,6.73
2024-04-24T04:05:46.191Z,7.23
2024-04-24T04:06:17.021Z,6.60
2024-04-24T04:06:47.864Z,6.93
2024-04-24T04:07:18.705Z,7.37
2024-04-24T04:07:58.843Z,7.30
2024-04-24T04:08:30.048Z,6.43
2024-04-24T04:09:00.974Z,6.67
2024-04-24T04:09:31.825Z,7.13
2024-04-24T04:10:03.212Z,6.33
2024-04-24T04:10:33.993Z,6.67
2024-04-24T04:11:04.816Z,6.80
2024-04-24T04:11:35.914Z,6.57
2024-04-24T04:12:09.469Z,6.50
2024-04-24T04:12:43.628Z,6.40
2024-04-24T04:13:14.417Z,6.53
2024-04-24T04:13:45.964Z,6.23
2024-04-24T04:14:16.911Z,6.37
2024-04-24T04:14:47.751Z,6.70
2024-04-24T04:15:18.543Z,6.03
2024-04-24T04:15:49.344Z,6.60
2024-04-24T04:16:20.137Z,7.00
2024-04-24T04:16:50.961Z,6.57
2024-04-24T04:17:21.833Z,5.97
2024-04-24T04:17:52.864Z,6.23
2024-04-24T04:18:23.839Z,6.30
2024-04-24T04:18:54.752Z,6.27
2024-04-24T04:19:25.636Z,6.40
2024-04-24T04:19:56.491Z,6.00
2024-04-24T04:20:27.365Z,5.90
2024-04-24T04:20:58.189Z,5.87
2024-04-24T04:21:29.050Z,6.40
2024-04-24T04:22:00.119Z,6.90
2024-04-24T04:22:30.916Z,6.20
2024-04-24T04:23:01.996Z,6.67
2024-04-24T04:23:33.143Z,6.83
2024-04-24T04:24:04.117Z,6.43
2024-04-24T04:24:34.903Z,5.70
2024-04-24T04:25:05.953Z,5.80
2024-04-24T04:25:36.745Z,6.23
2024-04-24T04:26:07.645Z,6.97
2024-04-24T04:26:38.507Z,6.53
2024-04-24T04:27:09.367Z,6.00
2024-04-24T04:27:40.158Z,5.83
2024-04-24T04:28:11.006Z,6.07
2024-04-24T04:28:41.797Z,6.43
2024-04-24T04:29:12.780Z,6.27
2024-04-24T04:29:43.594Z,5.93
2024-04-24T04:30:14.997Z,6.60
2024-04-24T04:30:50.747Z,6.70
2024-04-24T04:31:21.575Z,6.30
2024-04-24T04:31:52.375Z,6.63
2024-04-24T04:32:23.405Z,6.13
2024-04-24T04:32:54.383Z,6.20
2024-04-24T04:33:25.280Z,6.20
2024-04-24T04:33:56.194Z,6.57
2024-04-24T04:34:26.994Z,5.83
2024-04-24T04:34:57.816Z,5.93
2024-04-24T04:35:28.699Z,6.30
2024-04-24T04:36:03.918Z,5.93
2024-04-24T04:36:34.831Z,5.67
2024-04-24T04:37:05.653Z,6.47
2024-04-24T04:37:39.495Z,6.23
2024-04-24T04:38:10.669Z,6.33
2024-04-24T04:38:41.503Z,7.70
2024-04-24T04:39:13.674Z,7.87
2024-04-24T04:39:44.935Z,7.10
2024-04-24T04:40:15.715Z,7.47
2024-04-24T04:40:47.496Z,6.40
2024-04-24T04:41:18.332Z,6.40
2024-04-24T04:41:49.145Z,7.80
2024-04-24T04:42:19.935Z,7.83
2024-04-24T04:42:50.754Z,7.67
2024-04-24T04:43:24.255Z,6.50
2024-04-24T04:43:56.652Z,6.37
2024-04-24T04:44:27.572Z,6.33
2024-04-24T04:44:58.425Z,6.63
2024-04-24T04:45:29.919Z,6.80
2024-04-24T04:46:00.768Z,6.63
2024-04-24T04:46:31.557Z,6.77
2024-04-24T04:47:02.406Z,6.27
2024-04-24T04:47:33.394Z,5.93
2024-04-24T04:48:07.888Z,6.03
2024-04-24T04:48:38.799Z,6.57
2024-04-24T04:49:09.632Z,6.73
2024-04-24T04:49:40.412Z,6.47
2024-04-24T04:50:11.251Z,5.90
2024-04-24T04:50:42.554Z,6.27
2024-04-24T04:51:13.403Z,6.27
2024-04-24T04:51:44.264Z,6.17
2024-04-24T04:52:15.047Z,6.57
2024-04-24T04:52:45.888Z,6.63
2024-04-24T04:53:16.759Z,6.67
2024-04-24T04:53:47.564Z,6.77
2024-04-24T04:54:18.374Z,6.13
2024-04-24T04:54:49.158Z,5.80
2024-04-24T04:55:20.068Z,5.97
2024-04-24T04:55:50.948Z,6.27
2024-04-24T04:56:21.809Z,7.03
2024-04-24T04:56:52.685Z,7.30
2024-04-24T04:57:23.476Z,7.33
2024-04-24T04:57:54.394Z,6.90
2024-04-24T04:58:25.336Z,6.17
2024-04-24T04:58:56.226Z,6.13
2024-04-24T04:59:27.170Z,6.53
2024-04-24T04:59:58.002Z,6.80
2024-04-24T05:00:29.018Z,6.47
2024-04-24T05:00:59.933Z,6.90
2024-04-24T05:01:30.808Z,6.87
2024-04-24T05:02:01.613Z,6.30
2024-04-24T05:02:33.478Z,6.80
2024-04-24T05:03:07.164Z,6.87
2024-04-24T05:03:38.116Z,6.70
2024-04-24T05:04:08.942Z,6.63
2024-04-24T05:04:39.803Z,6.17
2024-04-24T05:05:11.309Z,6.27
2024-04-24T05:05:42.146Z,6.07
2024-04-24T05:06:12.952Z,7.50
2024-04-24T05:06:43.788Z,9.43
2024-04-24T05:07:14.580Z,9.67
2024-04-24T05:07:45.952Z,8.70
2024-04-24T05:08:16.777Z,7.60
2024-04-24T05:08:49.590Z,7.33
2024-04-24T05:09:21.724Z,6.80
2024-04-24T05:09:52.519Z,6.67
2024-04-24T05:10:23.319Z,6.57
2024-04-24T05:10:54.308Z,6.57
2024-04-24T05:11:25.256Z,6.40
2024-04-24T05:11:56.213Z,6.77
2024-04-24T05:12:27.084Z,6.97
2024-04-24T05:12:57.934Z,6.77
2024-04-24T05:13:28.725Z,6.87
2024-04-24T05:13:59.582Z,7.20
2024-04-24T05:14:30.403Z,7.00
2024-04-24T05:15:01.230Z,7.10
2024-04-24T05:15:32.044Z,6.60
2024-04-24T05:16:02.983Z,5.83
2024-04-24T05:16:33.771Z,6.27
2024-04-24T05:17:04.606Z,5.80
2024-04-24T05:17:35.532Z,5.80
2024-04-24T05:18:06.851Z,6.67
2024-04-24T05:18:38.487Z,6.33
2024-04-24T05:19:09.544Z,5.93
2024-04-24T05:19:40.365Z,5.83
2024-04-24T05:20:11.218Z,6.03
2024-04-24T05:20:42.079Z,6.40
2024-04-24T05:21:12.900Z,6.43
2024-04-24T05:21:43.709Z,6.10
2024-04-24T05:22:14.500Z,6.33
2024-04-24T05:22:50.527Z,6.07
2024-04-24T05:23:21.387Z,6.00
2024-04-24T05:23:52.181Z,5.77
2024-04-24T05:24:22.983Z,6.13
2024-04-24T05:24:53.865Z,6.13
2024-04-24T05:25:27.427Z,6.40
2024-04-24T05:25:58.350Z,5.73
2024-04-24T05:26:47.639Z,6.80
2024-04-24T05:27:36.762Z,7.03
2024-04-24T05:28:26.730Z,6.50
2024-04-24T05:29:03.892Z,6.33
2024-04-24T05:29:34.767Z,6.17
2024-04-24T05:30:06.009Z,6.50
2024-04-24T05:30:36.797Z,6.93
2024-04-24T05:31:07.589Z,6.47
2024-04-24T05:31:38.407Z,6.23
2024-04-24T05:32:09.311Z,6.60
2024-04-24T05:32:40.220Z,5.97
2024-04-24T05:33:11.121Z,6.20
2024-04-24T05:33:42.193Z,6.00
2024-04-24T05:34:13.128Z,5.80
2024-04-24T05:34:43.947Z,5.60
2024-04-24T05:35:14.814Z,5.70
2024-04-24T05:35:45.710Z,5.90
2024-04-24T05:36:16.521Z,6.57
2024-04-24T05:36:47.328Z,5.63
2024-04-24T05:37:18.117Z,5.83
2024-04-24T05:37:49.004Z,6.53
2024-04-24T05:38:19.898Z,5.87
2024-04-24T05:38:50.768Z,5.93
2024-04-24T05:39:21.638Z,5.97
2024-04-24T05:39:52.576Z,5.70
2024-04-24T05:40:23.411Z,6.20
2024-04-24T05:40:54.326Z,6.07
2024-04-24T05:41:25.197Z,6.30
2024-04-24T05:41:56.490Z,6.43
2024-04-24T05:42:27.312Z,6.43
2024-04-24T05:42:58.159Z,6.10
2024-04-24T05:43:28.960Z,6.43
2024-04-24T05:43:59.831Z,6.87
2024-04-24T05:44:33.990Z,7.13
2024-04-24T05:45:04.925Z,6.93
2024-04-24T05:45:35.720Z,6.30
2024-04-24T05:46:06.521Z,6.57
2024-04-24T05:46:37.383Z,6.23
2024-04-24T05:47:08.281Z,7.17
2024-04-24T05:47:39.224Z,7.10
2024-04-24T05:48:10.193Z,6.13
2024-04-24T05:48:41.142Z,6.10
2024-04-24T05:49:12.010Z,6.10
2024-04-24T05:49:42.802Z,6.60
2024-04-24T05:50:13.806Z,6.80
2024-04-24T05:50:44.637Z,6.10
2024-04-24T05:51:15.441Z,6.17
2024-04-24T05:51:46.238Z,6.63
2024-04-24T05:52:17.029Z,6.63
2024-04-24T05:52:47.823Z,6.27
2024-04-24T05:53:18.753Z,6.03
2024-04-24T05:53:49.620Z,6.63
2024-04-24T05:54:20.402Z,6.67
2024-04-24T05:54:51.977Z,7.20
2024-04-24T05:55:25.656Z,7.67
2024-04-24T05:55:56.512Z,7.83
2024-04-24T05:56:27.374Z,8.57
2024-04-24T05:56:58.354Z,8.90
2024-04-24T05:57:29.635Z,8.17
2024-04-24T05:58:00.503Z,7.73
2024-04-24T05:58:31.298Z,6.83
2024-04-24T05:59:02.119Z,6.33
2024-04-24T05:59:33.095Z,7.30
2024-04-24T06:00:06.896Z,7.47
2024-04-24T06:00:37.764Z,6.87
2024-04-24T06:01:08.656Z,5.90
2024-04-24T06:01:39.469Z,6.23
2024-04-24T06:02:10.270Z,6.23
2024-04-24T06:02:41.099Z,5.80
2024-04-24T06:03:11.978Z,6.03
2024-04-24T06:03:42.807Z,6.23
2024-04-24T06:04:13.675Z,5.97
2024-04-24T06:04:46.818Z,6.47
2024-04-24T06:05:17.662Z,6.70
2024-04-24T06:05:48.506Z,6.57
2024-04-24T06:06:19.334Z,7.10
2024-04-24T06:06:52.433Z,7.60
2024-04-24T06:07:24.713Z,6.33
2024-04-24T06:07:56.089Z,6.00
2024-04-24T06:08:26.952Z,6.13
2024-04-24T06:08:57.749Z,6.23
2024-04-24T06:09:28.602Z,5.87
2024-04-24T06:09:59.864Z,6.60
2024-04-24T06:10:30.697Z,6.70
2024-04-24T06:11:01.585Z,7.00
2024-04-24T06:11:32.627Z,6.77
2024-04-24T06:12:03.626Z,6.57
2024-04-24T06:12:34.527Z,7.00
2024-04-24T06:13:05.990Z,6.97
2024-04-24T06:13:36.774Z,6.33
2024-04-24T06:14:07.618Z,7.33
2024-04-24T06:14:38.412Z,6.47
2024-04-24T06:15:09.251Z,6.27
2024-04-24T06:15:40.036Z,6.67
2024-04-24T06:16:10.849Z,6.90
2024-04-24T06:16:41.641Z,6.63
2024-04-24T06:17:12.513Z,6.50
2024-04-24T06:17:43.551Z,6.63
2024-04-24T06:18:14.530Z,6.63
2024-04-24T06:18:45.599Z,6.43
2024-04-24T06:19:16.598Z,6.97
2024-04-24T06:19:47.398Z,6.53
2024-04-24T06:20:18.402Z,6.37
2024-04-24T06:20:49.246Z,6.53
2024-04-24T06:21:20.027Z,6.20
2024-04-24T06:21:51.138Z,6.17
2024-04-24T06:22:21.927Z,6.33
2024-04-24T06:22:52.732Z,6.83
2024-04-24T06:23:23.649Z,6.53
2024-04-24T06:23:54.892Z,6.37
2024-04-24T06:24:25.736Z,6.63
2024-04-24T06:24:56.527Z,6.50
2024-04-24T06:25:27.324Z,6.20
2024-04-24T06:25:58.172Z,5.87
2024-04-24T06:26:29.098Z,5.57
2024-04-24T06:26:59.930Z,5.57
2024-04-24T06:27:30.712Z,5.87
2024-04-24T06:28:01.503Z,5.37
2024-04-24T06:28:32.324Z,5.43
2024-04-24T06:29:03.189Z,5.50
2024-04-24T06:29:34.539Z,5.37
2024-04-24T06:30:05.820Z,4.67
2024-04-24T06:30:36.603Z,4.93
2024-04-24T06:31:07.449Z,4.97
2024-04-24T06:31:38.268Z,4.73
2024-04-24T06:32:09.181Z,5.27
2024-04-24T06:32:40.101Z,5.17
2024-04-24T06:33:11.122Z,4.73
2024-04-24T06:33:42.116Z,4.93
2024-04-24T06:34:12.953Z,5.10
2024-04-24T06:34:43.751Z,4.50
2024-04-24T06:35:17.498Z,4.50
2024-04-24T06:35:48.448Z,4.73
2024-04-24T06:36:19.254Z,4.73
2024-04-24T06:36:50.048Z,4.90
2024-04-24T06:37:20.847Z,4.63
2024-04-24T06:37:53.490Z,4.63
2024-04-24T06:38:24.436Z,4.63
2024-04-24T06:38:55.401Z,4.47
2024-04-24T06:39:26.297Z,4.93
2024-04-24T06:39:57.092Z,5.00
2024-04-24T06:40:27.882Z,4.30
2024-04-24T06:40:58.697Z,4.57
2024-04-24T06:41:29.692Z,4.77
2024-04-24T06:42:00.519Z,4.73
2024-04-24T06:42:31.320Z,4.33
2024-04-24T06:43:02.607Z,4.00
2024-04-24T06:43:33.384Z,4.57
2024-04-24T06:44:04.234Z,4.57
2024-04-24T06:44:35.485Z,4.70
2024-04-24T06:45:06.420Z,4.43
2024-04-24T06:45:38.262Z,4.87
2024-04-24T06:46:09.080Z,5.10
2024-04-24T06:46:39.875Z,4.97
2024-04-24T06:47:10.693Z,4.63
2024-04-24T06:47:41.519Z,4.77
2024-04-24T06:48:12.375Z,5.13
2024-04-24T06:48:43.233Z,4.87
2024-04-24T06:49:14.126Z,4.50
2024-04-24T06:49:44.917Z,4.87
2024-04-24T06:50:15.802Z,4.43
2024-04-24T06:50:46.643Z,4.10
2024-04-24T06:51:20.343Z,4.53
2024-04-24T06:51:51.943Z,4.70
2024-04-24T06:52:22.772Z,4.73
2024-04-24T06:52:53.610Z,4.50
2024-04-24T06:53:24.463Z,4.53
2024-04-24T06:53:55.292Z,4.20
2024-04-24T06:54:26.143Z,4.00
2024-04-24T06:54:56.947Z,4.17
2024-04-24T06:55:27.738Z,4.17
2024-04-24T06:56:03.225Z,3.67
2024-04-24T06:56:35.954Z,3.60
2024-04-24T06:57:06.813Z,3.43
2024-04-24T06:57:37.631Z,3.17
2024-04-24T06:58:08.433Z,3.17
2024-04-24T06:58:39.237Z,3.10